createdAt,value
2022-11-15T00:01:46.052Z,96.00
2022-11-15T00:04:31.903Z,97.10
2022-11-15T00:07:40.212Z,91.53
2022-11-15T00:10:22.600Z,92.53
2022-11-15T00:13:13.102Z,83.82
2022-11-15T00:16:00.550Z,89.40
2022-11-15T00:18:50.365Z,84.90
2022-11-15T00:21:36.457Z,80.13
2022-11-15T00:24:21.917Z,78.78
2022-11-15T00:27:08.158Z,74.90
2022-11-15T00:29:54.384Z,72.65
2022-11-15T00:32:40.005Z,71.00
2022-11-15T00:35:25.587Z,69.50
2022-11-15T00:38:11.154Z,69.90
2022-11-15T00:40:56.670Z,68.40
2022-11-15T00:43:44.492Z,67.05
2022-11-15T00:46:30.323Z,71.35
2022-11-15T00:49:15.930Z,71.95
2022-11-15T00:52:01.468Z,72.65
2022-11-15T00:54:46.972Z,66.25
2022-11-15T00:57:32.396Z,69.07
2022-11-15T01:00:18.131Z,64.32
2022-11-15T01:03:03.287Z,63.95
2022-11-15T01:05:48.776Z,54.47
2022-11-15T01:08:35.349Z,55.25
2022-11-15T01:11:20.481Z,51.65
2022-11-15T01:14:06.194Z,47.78
2022-11-15T01:16:51.676Z,52.75
2022-11-15T01:19:37.331Z,49.15
2022-11-15T01:22:22.999Z,46.47
2022-11-15T01:25:08.477Z,48.25
2022-11-15T01:27:53.938Z,41.83
2022-11-15T01:30:39.455Z,40.30
2022-11-15T01:33:24.863Z,36.47
2022-11-15T01:36:25.364Z,42.30
2022-11-15T01:39:10.710Z,38.92
2022-11-15T01:41:56.454Z,39.42
2022-11-15T01:44:43.445Z,41.50
2022-11-15T01:47:40.161Z,36.55
2022-11-15T01:50:30.825Z,35.78
2022-11-15T01:53:17.216Z,35.78
2022-11-15T01:56:09.055Z,44.75
2022-11-15T01:58:57.894Z,39.08
2022-11-15T02:01:43.959Z,34.78
2022-11-15T02:07:19.444Z,31.40
2022-11-15T02:10:15.372Z,35.22
2022-11-15T02:13:02.768Z,34.75
2022-11-15T02:16:14.365Z,30.70
2022-11-15T02:19:08.568Z,27.45
2022-11-15T02:22:07.985Z,29.42
2022-11-15T02:25:05.434Z,25.92
2022-11-15T02:28:18.717Z,30.70
2022-11-15T02:31:06.801Z,30.25
2022-11-15T02:34:01.186Z,32.40
2022-11-15T02:37:15.932Z,51.28
2022-11-15T02:40:31.018Z,31.08
2022-11-15T02:43:45.423Z,35.50
2022-11-15T02:47:13.885Z,32.22
2022-11-15T02:50:09.127Z,33.53
2022-11-15T02:52:54.471Z,34.45
2022-11-15T02:55:45.872Z,28.75
2022-11-15T02:58:37.400Z,30.60
2022-11-15T03:01:31.704Z,31.63
2022-11-15T03:04:36.523Z,29.48
2022-11-15T03:07:37.758Z,26.13
2022-11-15T03:10:32.982Z,23.30
2022-11-15T03:13:32.214Z,20.65
2022-11-15T03:16:35.885Z,25.20
2022-11-15T03:19:47.635Z,24.52
2022-11-15T03:22:41.221Z,17.38
2022-11-15T03:25:29.171Z,33.28
2022-11-15T03:28:23.256Z,23.17
2022-11-15T03:31:29.771Z,20.85
2022-11-15T03:37:26.530Z,16.53
2022-11-15T03:40:12.810Z,15.75
2022-11-15T03:43:38.998Z,23.77
2022-11-15T03:46:27.016Z,17.88
2022-11-15T03:49:22.922Z,27.42
2022-11-15T03:52:08.584Z,16.80
2022-11-15T03:54:57.067Z,22.02
2022-11-15T03:57:43.193Z,23.00
2022-11-15T04:03:14.579Z,19.42
2022-11-15T04:05:59.905Z,26.17
2022-11-15T04:08:45.551Z,21.67
2022-11-15T04:11:30.988Z,24.60
2022-11-15T04:14:16.344Z,25.95
2022-11-15T04:17:01.754Z,15.95
2022-11-15T04:20:05.806Z,12.27
2022-11-15T04:23:12.295Z,27.33
2022-11-15T04:26:04.607Z,17.17
2022-11-15T04:29:09.418Z,20.20
2022-11-15T04:31:54.737Z,15.68
2022-11-15T04:34:40.341Z,14.32
2022-11-15T04:37:25.818Z,18.98
2022-11-15T04:40:11.434Z,18.80
2022-11-15T04:43:03.260Z,17.45
2022-11-15T04:45:48.931Z,22.40
2022-11-15T04:48:34.408Z,26.67
2022-11-15T04:51:20.628Z,18.27
2022-11-15T04:56:51.223Z,15.68
2022-11-15T04:59:36.856Z,18.45
2022-11-15T05:02:22.151Z,17.90
2022-11-15T05:05:08.109Z,19.92
2022-11-15T05:07:53.318Z,16.58
2022-11-15T05:10:38.993Z,18.00
2022-11-15T05:13:24.619Z,15.70
2022-11-15T05:16:10.386Z,14.27
2022-11-15T05:18:56.141Z,16.60
2022-11-15T05:21:41.655Z,21.70
2022-11-15T05:24:26.964Z,18.60
2022-11-15T05:27:12.488Z,22.90
2022-11-15T05:29:57.677Z,22.33
2022-11-15T05:32:44.364Z,16.65
2022-11-15T05:35:42.327Z,18.67
2022-11-15T05:38:27.618Z,23.13
2022-11-15T05:41:13.936Z,23.42
2022-11-15T05:44:01.454Z,17.38
2022-11-15T05:46:48.964Z,19.48
2022-11-15T05:49:39.463Z,23.45
2022-11-15T05:52:29.382Z,23.83
2022-11-15T05:55:15.428Z,21.17
2022-11-15T05:58:02.065Z,22.45
2022-11-15T06:00:47.729Z,23.13
2022-11-15T06:03:33.351Z,24.27
2022-11-15T06:09:04.149Z,18.55
2022-11-15T06:11:49.809Z,26.02
2022-11-15T06:14:35.104Z,24.02
2022-11-15T06:17:20.533Z,27.63
2022-11-15T06:20:06.657Z,24.83
2022-11-15T06:22:52.288Z,22.20
2022-11-15T06:25:37.778Z,34.47
2022-11-15T06:28:23.358Z,25.77
2022-11-15T06:31:11.982Z,32.20
2022-11-15T06:33:57.258Z,24.73
2022-11-15T06:36:42.676Z,20.95
2022-11-15T06:39:28.133Z,22.33
2022-11-15T06:42:13.631Z,28.67
2022-11-15T06:44:59.208Z,21.13
2022-11-15T06:47:48.166Z,23.58
2022-11-15T06:50:33.705Z,25.90
2022-11-15T06:53:19.241Z,22.27
2022-11-15T06:56:07.326Z,29.55
2022-11-15T06:58:52.831Z,25.80
2022-11-15T07:01:38.212Z,20.17
2022-11-15T07:04:23.759Z,25.30
2022-11-15T07:07:09.309Z,21.50
2022-11-15T07:09:54.696Z,26.42
2022-11-15T07:12:40.137Z,27.05
2022-11-15T07:15:26.792Z,36.92
2022-11-15T07:18:12.670Z,27.08
2022-11-15T07:21:05.492Z,28.48
2022-11-15T07:23:50.975Z,32.05
2022-11-15T07:26:36.406Z,27.60
2022-11-15T07:29:22.095Z,32.88
2022-11-15T07:32:07.667Z,36.28
2022-11-15T07:34:53.232Z,36.80
2022-11-15T07:37:38.742Z,29.90
2022-11-15T07:40:25.217Z,36.00
2022-11-15T07:43:10.784Z,37.53
2022-11-15T07:45:59.408Z,39.40
2022-11-15T07:48:45.682Z,35.55
2022-11-15T07:51:34.660Z,38.30
2022-11-15T07:54:20.112Z,38.03
2022-11-15T07:57:07.822Z,38.70
2022-11-15T07:59:53.803Z,36.58
2022-11-15T08:02:39.275Z,36.25
2022-11-15T08:05:24.627Z,37.05
2022-11-15T08:08:11.863Z,36.80
2022-11-15T08:10:59.254Z,44.30
2022-11-15T08:13:44.773Z,38.95
2022-11-15T08:16:30.470Z,36.40
2022-11-15T08:19:16.150Z,32.58
2022-11-15T08:22:01.908Z,42.22
2022-11-15T08:24:47.514Z,28.40
2022-11-15T08:27:32.923Z,43.45
2022-11-15T08:30:18.392Z,35.55
2022-11-15T08:33:04.064Z,39.53
2022-11-15T08:35:49.596Z,33.80
2022-11-15T08:38:35.162Z,26.52
2022-11-15T08:44:14.476Z,24.20
2022-11-15T08:46:59.951Z,22.67
2022-11-15T08:49:45.457Z,25.45
2022-11-15T08:52:31.094Z,26.63
2022-11-15T08:55:17.700Z,21.83
2022-11-15T08:58:03.527Z,28.95
2022-11-15T09:00:49.085Z,20.13
2022-11-15T09:03:34.661Z,24.35
2022-11-15T09:06:20.041Z,21.85
2022-11-15T09:09:05.599Z,18.05
2022-11-15T09:11:51.762Z,17.00
2022-11-15T09:17:24.996Z,16.30
2022-11-15T09:20:11.654Z,18.55
2022-11-15T09:23:01.021Z,13.95
2022-11-15T09:25:46.615Z,14.68
2022-11-15T09:28:34.326Z,13.88
2022-11-15T09:31:22.229Z,10.52
2022-11-15T09:34:08.111Z,13.57
2022-11-15T09:36:53.743Z,13.70
2022-11-15T09:39:39.296Z,13.02
2022-11-15T09:42:51.539Z,7.95
2022-11-15T09:45:55.211Z,12.40
2022-11-15T09:49:04.991Z,9.32
2022-11-15T09:51:58.939Z,10.07
2022-11-15T09:54:53.232Z,12.07
2022-11-15T09:57:39.673Z,17.00
2022-11-15T10:00:45.404Z,9.57
2022-11-15T10:03:15.240Z,14.80
2022-11-15T10:05:48.703Z,10.98
2022-11-15T10:08:41.563Z,10.80
2022-11-15T10:14:23.147Z,10.13
2022-11-15T10:16:59.452Z,10.77
2022-11-15T10:20:06.060Z,11.02
2022-11-15T10:22:40.515Z,9.35
2022-11-15T10:25:10.357Z,11.02
2022-11-15T10:27:37.657Z,9.07
2022-11-15T10:30:11.273Z,11.27
2022-11-15T10:32:38.559Z,6.80
2022-11-15T10:35:20.215Z,12.77
2022-11-15T10:37:47.101Z,9.45
2022-11-15T10:40:23.396Z,9.75
2022-11-15T10:43:10.673Z,13.27
2022-11-15T10:45:39.262Z,8.00
2022-11-15T10:48:15.095Z,7.68
2022-11-15T10:50:47.075Z,9.73
2022-11-15T10:53:21.276Z,11.82
2022-11-15T10:55:50.669Z,6.45
2022-11-15T10:58:41.173Z,10.10
2022-11-15T11:01:18.720Z,9.27
2022-11-15T11:04:00.055Z,6.30
2022-11-15T11:06:27.290Z,6.50
2022-11-15T11:09:06.188Z,8.35
2022-11-15T11:11:51.075Z,13.13
2022-11-15T11:14:24.419Z,8.55
2022-11-15T11:16:56.722Z,10.73
2022-11-15T11:19:39.559Z,10.25
2022-11-15T11:22:34.565Z,11.80
2022-11-15T11:25:01.341Z,7.28
2022-11-15T11:27:31.526Z,8.23
2022-11-15T11:30:04.100Z,13.23
2022-11-15T11:32:36.756Z,14.57
2022-11-15T11:35:25.917Z,12.20
2022-11-15T11:38:20.343Z,14.55
2022-11-15T11:41:11.993Z,10.13
2022-11-15T11:44:08.657Z,7.18
2022-11-15T11:46:56.318Z,8.65
2022-11-15T11:49:36.372Z,13.18
2022-11-15T11:52:18.586Z,9.77
2022-11-15T11:55:00.148Z,8.50
2022-11-15T11:57:52.313Z,7.93
2022-11-15T12:00:24.746Z,10.20
2022-11-15T12:03:08.889Z,8.27
2022-11-15T12:05:44.271Z,12.60
2022-11-15T12:08:25.771Z,10.93
2022-11-15T12:11:18.445Z,7.97
2022-11-15T12:13:49.018Z,9.68
2022-11-15T12:16:18.445Z,9.20
2022-11-15T12:18:50.393Z,9.55
2022-11-15T12:21:46.603Z,7.85
2022-11-15T12:24:24.430Z,5.75
2022-11-15T12:27:02.407Z,14.90
2022-11-15T12:29:40.660Z,13.50
2022-11-15T12:32:33.813Z,10.63
2022-11-15T12:35:02.974Z,7.22
2022-11-15T12:37:38.990Z,11.00
2022-11-15T12:40:24.628Z,9.57
2022-11-15T12:43:09.582Z,8.50
2022-11-15T12:45:42.464Z,13.97
2022-11-15T12:48:18.315Z,11.75
2022-11-15T12:50:59.454Z,11.52
2022-11-15T12:53:26.497Z,4.75
2022-11-15T12:56:05.663Z,10.65
2022-11-15T12:58:49.597Z,8.65
2022-11-15T13:01:43.231Z,11.13
2022-11-15T13:04:30.792Z,7.18
2022-11-15T13:07:04.393Z,8.93
2022-11-15T13:09:37.369Z,11.25
2022-11-15T13:12:27.808Z,6.35
2022-11-15T13:15:13.680Z,5.82
2022-11-15T13:17:51.561Z,9.27
2022-11-15T13:20:20.267Z,9.25
2022-11-15T13:23:08.238Z,7.05
2022-11-15T13:25:40.621Z,6.63
2022-11-15T13:28:16.582Z,7.07
2022-11-15T13:31:27.369Z,5.25
2022-11-15T13:33:58.106Z,8.60
2022-11-15T13:36:36.804Z,5.63
2022-11-15T13:39:03.684Z,5.28
2022-11-15T13:41:36.135Z,5.32
2022-11-15T13:44:04.884Z,7.13
2022-11-15T13:46:35.181Z,6.28
2022-11-15T13:49:04.807Z,8.48
2022-11-15T13:51:45.258Z,10.55
2022-11-15T13:54:30.058Z,6.47
2022-11-15T13:57:02.518Z,6.25
2022-11-15T13:59:31.061Z,6.00
2022-11-15T14:02:04.467Z,6.32
2022-11-15T14:04:34.813Z,7.60
2022-11-15T14:07:03.105Z,5.60
2022-11-15T14:09:38.930Z,5.30
2022-11-15T14:12:30.120Z,6.72
2022-11-15T14:14:58.426Z,6.78
2022-11-15T14:17:31.339Z,9.93
2022-11-15T14:19:59.129Z,5.63
2022-11-15T14:22:29.136Z,6.45
2022-11-15T14:25:08.290Z,7.45
2022-11-15T14:27:35.435Z,6.40
2022-11-15T14:30:02.665Z,8.00
2022-11-15T14:32:44.983Z,8.52
2022-11-15T14:35:22.152Z,5.90
2022-11-15T14:37:49.364Z,5.47
2022-11-15T14:40:21.734Z,6.28
2022-11-15T14:42:50.135Z,7.85
2022-11-15T14:45:22.530Z,9.32
2022-11-15T14:47:49.680Z,9.15
2022-11-15T14:50:18.945Z,8.77
2022-11-15T14:52:46.336Z,12.77
2022-11-15T14:55:22.108Z,10.38
2022-11-15T14:57:49.096Z,7.15
2022-11-15T15:00:16.626Z,10.05
2022-11-15T15:02:46.239Z,7.32
2022-11-15T15:05:24.252Z,6.85
2022-11-15T15:07:54.123Z,8.38
2022-11-15T15:13:26.959Z,6.13
2022-11-15T15:15:53.890Z,11.55
2022-11-15T15:18:21.420Z,7.50
2022-11-15T15:21:01.091Z,7.43
2022-11-15T15:23:30.238Z,5.78
2022-11-15T15:25:57.419Z,8.88
2022-11-15T15:28:26.626Z,5.10
2022-11-15T15:30:55.514Z,12.23
2022-11-15T15:33:22.279Z,6.97
2022-11-15T15:35:49.205Z,5.72
2022-11-15T15:38:16.854Z,9.18
2022-11-15T15:40:43.829Z,9.25
2022-11-15T15:43:10.746Z,7.18
2022-11-15T15:45:41.103Z,10.43
2022-11-15T15:48:14.729Z,9.38
2022-11-15T15:50:46.310Z,14.35
2022-11-15T15:53:14.967Z,13.73
2022-11-15T15:55:42.491Z,13.02
2022-11-15T15:58:10.278Z,10.77
2022-11-15T16:00:38.069Z,7.10
2022-11-15T16:03:04.976Z,11.35
2022-11-15T16:05:31.771Z,11.73
2022-11-15T16:07:58.727Z,10.20
2022-11-15T16:10:31.264Z,8.90
2022-11-15T16:12:59.031Z,12.35
2022-11-15T16:15:30.721Z,15.02
2022-11-15T16:18:00.107Z,12.05
2022-11-15T16:20:36.354Z,9.75
2022-11-15T16:23:08.985Z,13.18
2022-11-15T16:25:48.193Z,12.00
2022-11-15T16:28:27.543Z,10.50
2022-11-15T16:31:03.782Z,11.70
2022-11-15T16:33:31.853Z,11.15
2022-11-15T16:35:59.583Z,10.88
2022-11-15T16:38:27.321Z,12.18
2022-11-15T16:40:54.839Z,10.05
2022-11-15T16:43:22.418Z,10.68
2022-11-15T16:45:51.813Z,11.00
2022-11-15T16:48:29.093Z,13.05
2022-11-15T16:50:58.613Z,17.02
2022-11-15T16:53:28.007Z,17.25
2022-11-15T16:55:56.564Z,15.40
2022-11-15T16:58:24.644Z,10.35
2022-11-15T17:00:53.742Z,37.95
2022-11-15T17:03:25.002Z,14.77
2022-11-15T17:05:52.951Z,13.75
2022-11-15T17:08:22.214Z,12.00
2022-11-15T17:10:49.924Z,15.25
2022-11-15T17:13:18.224Z,16.58
2022-11-15T17:15:45.281Z,15.57
2022-11-15T17:18:15.919Z,12.60
2022-11-15T17:20:43.654Z,12.32
2022-11-15T17:23:14.511Z,16.55
2022-11-15T17:25:41.921Z,14.95
2022-11-15T17:28:08.803Z,12.90
2022-11-15T17:30:35.806Z,15.45
2022-11-15T17:33:02.665Z,13.52
2022-11-15T17:35:29.603Z,10.38
2022-11-15T17:37:56.428Z,9.13
2022-11-15T17:40:23.575Z,11.90
2022-11-15T17:42:50.383Z,8.45
2022-11-15T17:45:17.409Z,12.07
2022-11-15T17:47:44.251Z,11.88
2022-11-15T17:50:11.686Z,10.70
2022-11-15T17:52:38.514Z,14.20
2022-11-15T17:55:05.810Z,10.23
2022-11-15T17:57:32.668Z,11.70
2022-11-15T17:59:59.614Z,13.20
2022-11-15T18:02:26.543Z,14.40
2022-11-15T18:04:53.444Z,11.43
2022-11-15T18:07:20.278Z,10.23
2022-11-15T18:09:47.354Z,10.60
2022-11-15T18:12:14.388Z,11.30
2022-11-15T18:14:41.250Z,11.80
2022-11-15T18:17:08.068Z,10.05
2022-11-15T18:19:36.545Z,11.48
2022-11-15T18:22:05.425Z,14.30
2022-11-15T18:24:35.161Z,13.18
2022-11-15T18:27:03.968Z,12.38
2022-11-15T18:29:31.107Z,12.00
2022-11-15T18:31:58.936Z,12.68
2022-11-15T18:34:33.605Z,13.60
2022-11-15T18:37:02.853Z,12.77
2022-11-15T18:39:30.268Z,11.70
2022-11-15T18:41:57.265Z,11.88
2022-11-15T18:44:24.273Z,10.93
2022-11-15T18:46:51.196Z,11.48
2022-11-15T18:49:19.675Z,13.43
2022-11-15T18:51:47.349Z,10.73
2022-11-15T18:54:17.028Z,12.32
2022-11-15T18:56:45.603Z,11.30
2022-11-15T18:59:13.337Z,14.82
2022-11-15T19:01:48.543Z,13.02
2022-11-15T19:04:20.732Z,15.70
2022-11-15T19:06:49.230Z,13.15
2022-11-15T19:09:17.933Z,12.38
2022-11-15T19:11:46.587Z,16.85
2022-11-15T19:14:15.857Z,14.65
2022-11-15T19:16:52.655Z,15.45
2022-11-15T19:19:25.437Z,14.65
2022-11-15T19:21:53.244Z,14.38
2022-11-15T19:24:20.596Z,11.85
2022-11-15T19:26:47.569Z,16.23
2022-11-15T19:29:18.301Z,15.20
2022-11-15T19:31:45.723Z,14.88
2022-11-15T19:34:12.909Z,14.02
2022-11-15T19:36:44.485Z,17.42
2022-11-15T19:39:13.863Z,14.82
2022-11-15T19:41:43.017Z,12.93
2022-11-15T19:44:11.494Z,18.38
2022-11-15T19:46:38.986Z,13.73
2022-11-15T19:49:10.622Z,14.95
2022-11-15T19:51:39.113Z,13.30
2022-11-15T19:54:09.796Z,15.95
2022-11-15T19:56:37.445Z,15.10
2022-11-15T19:59:05.218Z,15.10
2022-11-15T20:01:36.324Z,16.48
2022-11-15T20:04:03.559Z,15.75
2022-11-15T20:06:32.647Z,16.35
2022-11-15T20:08:59.900Z,14.00
2022-11-15T20:11:26.837Z,15.45
2022-11-15T20:13:58.824Z,16.92
2022-11-15T20:16:26.078Z,15.60
2022-11-15T20:18:53.329Z,16.10
2022-11-15T20:21:21.564Z,15.35
2022-11-15T20:23:50.700Z,15.32
2022-11-15T20:26:18.595Z,17.05
2022-11-15T20:28:45.618Z,16.50
2022-11-15T20:31:13.003Z,17.60
2022-11-15T20:33:40.285Z,15.57
2022-11-15T20:36:12.801Z,16.27
2022-11-15T20:38:39.971Z,12.70
2022-11-15T20:41:07.004Z,13.52
2022-11-15T20:43:33.921Z,15.35
2022-11-15T20:46:00.909Z,13.35
2022-11-15T20:48:27.943Z,14.18
2022-11-15T20:51:11.509Z,17.85
2022-11-15T20:53:38.688Z,15.95
2022-11-15T20:56:17.491Z,18.92
2022-11-15T20:58:45.821Z,13.57
2022-11-15T21:01:15.104Z,14.27
2022-11-15T21:03:42.187Z,16.52
2022-11-15T21:06:09.583Z,15.82
2022-11-15T21:08:55.124Z,13.60
2022-11-15T21:11:40.390Z,18.33
2022-11-15T21:14:09.450Z,14.38
2022-11-15T21:16:37.358Z,14.05
2022-11-15T21:19:05.655Z,13.45
2022-11-15T21:21:32.459Z,18.08
2022-11-15T21:23:59.327Z,13.65
2022-11-15T21:26:26.869Z,14.98
2022-11-15T21:28:53.737Z,15.65
2022-11-15T21:31:20.586Z,14.75
2022-11-15T21:33:47.430Z,18.92
2022-11-15T21:36:14.648Z,14.30
2022-11-15T21:38:41.701Z,16.30
2022-11-15T21:41:08.585Z,14.70
2022-11-15T21:43:35.801Z,13.57
2022-11-15T21:46:04.781Z,14.98
2022-11-15T21:48:34.125Z,17.83
2022-11-15T21:51:07.346Z,14.63
2022-11-15T21:53:34.909Z,14.32
2022-11-15T21:56:02.098Z,13.32
2022-11-15T21:58:29.903Z,13.88
2022-11-15T22:01:15.940Z,13.38
2022-11-15T22:03:43.369Z,15.68
2022-11-15T22:06:16.014Z,12.70
2022-11-15T22:08:45.361Z,12.43
2022-11-15T22:11:12.533Z,15.05
2022-11-15T22:13:39.702Z,12.20
2022-11-15T22:16:07.580Z,14.30
2022-11-15T22:18:34.706Z,12.70
2022-11-15T22:21:12.256Z,14.65
2022-11-15T22:23:40.192Z,14.35
2022-11-15T22:26:08.433Z,15.65
2022-11-15T22:28:36.079Z,14.77
2022-11-15T22:31:03.684Z,8.10
2022-11-15T22:33:32.197Z,10.98
2022-11-15T22:35:59.936Z,7.63
2022-11-15T22:38:27.651Z,8.75
2022-11-15T22:40:55.236Z,7.00
2022-11-15T22:43:24.346Z,5.72
2022-11-15T22:45:54.957Z,6.75
2022-11-15T22:48:26.160Z,7.93
2022-11-15T22:50:53.373Z,7.25
2022-11-15T22:53:20.628Z,5.25
2022-11-15T22:55:56.111Z,11.43
2022-11-15T23:00:52.540Z,6.57
2022-11-15T23:03:21.170Z,10.50
2022-11-15T23:05:48.117Z,9.68
2022-11-15T23:08:15.510Z,8.20
2022-11-15T23:11:00.952Z,12.00
2022-11-15T23:13:29.426Z,9.98
2022-11-15T23:16:23.605Z,8.18
2022-11-15T23:18:56.639Z,7.22
2022-11-15T23:21:47.838Z,6.60
2022-11-15T23:24:15.783Z,6.65
2022-11-15T23:26:43.968Z,8.23
2022-11-15T23:29:12.969Z,8.15
2022-11-15T23:32:01.999Z,8.30
2022-11-15T23:34:35.205Z,5.45
2022-11-15T23:37:02.154Z,5.97
2022-11-15T23:39:28.979Z,8.98
2022-11-15T23:41:56.123Z,7.13
2022-11-15T23:44:23.686Z,10.20
2022-11-15T23:46:50.820Z,11.40
2022-11-15T23:49:17.660Z,9.40
2022-11-15T23:51:44.799Z,8.00
2022-11-15T23:54:12.304Z,9.60
2022-11-15T23:56:39.701Z,10.40
2022-11-15T23:59:07.016Z,9.85
